Date,TemperatureHighF,TemperatureAvgF,TemperatureLowF,DewpointHighF,DewpointAvgF,DewpointLowF,HumidityHigh,HumidityAvg,HumidityLow,PressureMaxIn,PressureMinIn,WindSpeedMaxMPH,WindSpeedAvgMPH,GustSpeedMaxMPH,PrecipitationSumIn
2013-3-1,47,38,35,36,32,30,93,79,63,29.86,29.78,4,1,0,0.04
2013-3-2,43,35,31,33,30,25,98,80,63,29.93,29.80,7,2,0,0.04
2013-3-3,43,32,21,26,22,19,93,67,42,29.97,29.89,11,2,0,0.03
2013-3-4,58,37,17,32,24,16,96,66,27,30.06,29.82,6,1,0,0.01
2013-3-5,49,40,33,48,37,29,99,92,80,29.87,29.45,9,2,0,1.39
2013-3-6,37,34,31,32,29,27,90,81,75,30.12,29.74,8,3,0,0.01
2013-3-7,43,36,33,33,30,28,87,78,62,30.21,30.09,7,2,0,0.02
2013-3-8,59,41,27,32,28,24,93,65,32,30.26,30.12,9,3,0,0.01
2013-3-9,69,44,26,40,33,25,99,69,28,30.17,29.99,5,1,0,0.04
2013-3-10,74,55,35,44,37,33,96,58,25,30.00,29.79,10,3,0,0.04
2013-3-11,62,56,44,56,49,40,97,79,47,29.82,29.56,14,4,0,1.19
2013-3-12,66,44,30,40,34,30,99,72,35,29.96,29.74,8,2,0,0.00
2013-3-13,54,38,27,32,26,19,99,65,33,30.21,29.95,10,3,0,0.03
2013-3-14,57,39,23,32,22,18,87,52,25,30.27,30.07,7,2,0,0.03
2013-3-15,76,52,27,47,38,26,98,64,34,30.11,29.70,11,2,0,0.03
2013-3-16,83,67,54,54,48,44,74,53,36,29.71,29.57,12,4,0,0.04
2013-3-17,78,64,48,56,50,45,92,62,39,29.76,29.62,9,3,0,0.00
2013-3-18,63,56,50,58,54,48,99,90,72,29.70,29.55,12,3,0,1.00
2013-3-19,68,51,32,53,34,17,99,61,18,29.98,29.69,6,2,0,0.02
2013-3-20,64,46,29,34,24,15,81,47,17,29.99,29.71,9,3,0,0.00
2013-3-21,51,35,21,21,17,13,78,49,26,29.87,29.75,9,3,0,0.00
2013-3-22,52,37,23,32,24,18,93,63,31,29.93,29.81,5,1,0,0.01
2013-3-23,60,46,39,47,40,32,98,81,62,29.85,29.59,7,2,0,0.03
2013-3-24,61,49,40,56,47,35,99,93,73,29.62,29.19,13,3,0,0.98
2013-3-25,41,36,33,35,30,28,85,77,64,29.89,29.49,11,5,0,0.03
2013-3-26,44,36,32,32,29,27,89,76,58,30.15,29.89,9,2,0,0.01
2013-3-27,60,40,24,34,28,24,99,67,30,30.20,30.06,9,2,0,0.01
2013-3-28,67,42,22,32,27,22,99,63,22,30.22,30.04,7,2,0,0.01
2013-3-29,48,38,26,45,36,25,99,93,72,30.22,30.08,6,1,0,0.37
2013-3-30,67,51,42,54,47,42,99,88,54,30.09,29.82,6,1,0,0.35
2013-3-31,68,56,50,61,54,49,99,95,76,29.81,29.66,9,2,0,0.55